createdAt,value
2023-05-06T00:01:23.085Z,55.40
2023-05-06T00:03:50.592Z,55.30
2023-05-06T00:06:17.631Z,55.40
2023-05-06T00:08:45.189Z,55.40
2023-05-06T00:11:12.615Z,55.30
2023-05-06T00:13:39.405Z,55.30
2023-05-06T00:16:06.335Z,55.30
2023-05-06T00:18:33.322Z,55.30
2023-05-06T00:21:00.150Z,55.20
2023-05-06T00:23:27.014Z,55.20
2023-05-06T00:25:54.858Z,55.20
2023-05-06T00:28:21.829Z,55.20
2023-05-06T00:30:48.666Z,55.20
2023-05-06T00:33:15.623Z,55.10
2023-05-06T00:35:42.573Z,55.00
2023-05-06T00:38:11.793Z,55.00
2023-05-06T00:40:39.589Z,55.00
2023-05-06T00:43:06.541Z,55.00
2023-05-06T00:45:33.546Z,55.00
2023-05-06T00:48:02.649Z,55.00
2023-05-06T00:50:32.421Z,55.00
2023-05-06T00:53:00.120Z,55.00
2023-05-06T00:55:27.781Z,55.00
2023-05-06T00:57:55.307Z,54.90
2023-05-06T01:00:22.191Z,55.00
2023-05-06T01:02:49.956Z,54.90
2023-05-06T01:05:19.433Z,54.90
2023-05-06T01:08:06.973Z,54.90
2023-05-06T01:10:35.702Z,54.80
2023-05-06T01:13:21.435Z,54.80
2023-05-06T01:15:53.902Z,54.80
2023-05-06T01:18:23.010Z,54.90
2023-05-06T01:20:54.332Z,55.00
2023-05-06T01:26:02.850Z,55.00
2023-05-06T01:28:29.803Z,55.10
2023-05-06T01:31:08.366Z,55.10
2023-05-06T01:33:47.908Z,55.20
2023-05-06T01:36:22.468Z,55.20
2023-05-06T01:39:00.093Z,55.10
2023-05-06T01:41:27.906Z,55.10
2023-05-06T01:43:56.628Z,55.20
2023-05-06T01:46:25.270Z,55.30
2023-05-06T01:48:55.175Z,55.20
2023-05-06T01:51:22.793Z,55.30
2023-05-06T01:53:50.142Z,55.40
2023-05-06T01:56:17.513Z,55.40
2023-05-06T01:58:45.096Z,55.30
2023-05-06T02:01:12.925Z,55.40
2023-05-06T02:03:39.875Z,55.30
2023-05-06T02:06:06.871Z,55.30
2023-05-06T02:08:33.810Z,55.30
2023-05-06T02:11:01.048Z,55.30
2023-05-06T02:13:28.016Z,55.30
2023-05-06T02:15:55.034Z,55.20
2023-05-06T02:18:22.180Z,55.20
2023-05-06T02:20:49.027Z,55.10
2023-05-06T02:23:15.930Z,55.00
2023-05-06T02:25:43.267Z,55.00
2023-05-06T02:28:10.378Z,55.00
2023-05-06T02:30:37.204Z,55.00
2023-05-06T02:33:04.122Z,54.90
2023-05-06T02:35:31.011Z,54.90
2023-05-06T02:37:58.847Z,54.80
2023-05-06T02:40:25.843Z,54.80
2023-05-06T02:42:52.744Z,54.70
2023-05-06T02:45:19.832Z,54.80
2023-05-06T02:47:46.885Z,54.70
2023-05-06T02:50:15.118Z,54.70
2023-05-06T02:52:42.897Z,54.60
2023-05-06T02:55:10.125Z,54.60
2023-05-06T02:57:37.154Z,54.60
2023-05-06T03:00:06.254Z,54.60
2023-05-06T03:02:33.588Z,54.50
2023-05-06T03:05:06.640Z,54.50
2023-05-06T03:07:37.121Z,54.50
2023-05-06T03:10:04.984Z,54.40
2023-05-06T03:12:31.848Z,54.40
2023-05-06T03:15:00.663Z,54.40
2023-05-06T03:17:27.513Z,54.50
2023-05-06T03:19:54.349Z,54.50
2023-05-06T03:22:21.204Z,54.50
2023-05-06T03:24:48.079Z,54.60
2023-05-06T03:27:14.966Z,54.60
2023-05-06T03:29:41.825Z,54.60
2023-05-06T03:32:09.104Z,54.70
2023-05-06T03:34:36.338Z,54.80
2023-05-06T03:37:03.180Z,54.90
2023-05-06T03:39:30.010Z,54.90
2023-05-06T03:41:57.122Z,54.80
2023-05-06T03:44:23.997Z,54.80
2023-05-06T03:46:50.818Z,54.70
2023-05-06T03:49:17.808Z,54.60
2023-05-06T03:51:44.758Z,54.70
2023-05-06T03:54:11.576Z,54.60
2023-05-06T03:56:38.387Z,54.60
2023-05-06T03:59:05.353Z,54.60
2023-05-06T04:01:32.242Z,54.60
2023-05-06T04:03:59.404Z,54.60
2023-05-06T04:06:27.091Z,54.60
2023-05-06T04:08:54.104Z,54.60
2023-05-06T04:11:20.919Z,55.30
2023-05-06T04:13:47.778Z,54.60
2023-05-06T04:16:14.746Z,54.60
2023-05-06T04:18:41.623Z,54.60
2023-05-06T04:21:10.669Z,54.50
2023-05-06T04:23:37.970Z,54.60
2023-05-06T04:26:04.843Z,54.60
2023-05-06T04:28:31.832Z,54.60
2023-05-06T04:30:58.724Z,54.60
2023-05-06T04:33:25.654Z,54.60
2023-05-06T04:35:53.843Z,54.60
2023-05-06T04:38:25.843Z,54.70
2023-05-06T04:40:53.625Z,54.60
2023-05-06T04:43:20.631Z,54.70
2023-05-06T04:45:49.684Z,54.90
2023-05-06T04:48:24.101Z,55.00
2023-05-06T04:50:51.370Z,55.10
2023-05-06T04:53:18.264Z,55.10
2023-05-06T04:55:45.091Z,55.20
2023-05-06T04:58:12.001Z,55.20
2023-05-06T05:00:38.929Z,55.20
2023-05-06T05:03:05.884Z,55.20
2023-05-06T05:05:34.384Z,55.10
2023-05-06T05:08:01.899Z,55.00
2023-05-06T05:10:28.967Z,54.90
2023-05-06T05:12:55.898Z,54.90
2023-05-06T05:15:22.991Z,54.70
2023-05-06T05:17:50.820Z,54.60
2023-05-06T05:20:17.861Z,54.50
2023-05-06T05:22:44.972Z,54.20
2023-05-06T05:25:12.062Z,54.00
2023-05-06T05:27:39.098Z,53.90
2023-05-06T05:30:07.351Z,53.80
2023-05-06T05:32:34.196Z,53.60
2023-05-06T05:35:01.081Z,53.40
2023-05-06T05:37:28.298Z,53.40
2023-05-06T05:39:55.882Z,53.30
2023-05-06T05:42:22.923Z,53.30
2023-05-06T05:44:49.764Z,53.30
2023-05-06T05:47:16.539Z,53.30
2023-05-06T05:49:43.359Z,53.50
2023-05-06T05:52:10.305Z,53.60
2023-05-06T05:54:37.325Z,53.70
2023-05-06T05:57:04.251Z,53.80
2023-05-06T05:59:32.799Z,53.70
2023-05-06T06:01:59.677Z,53.60
2023-05-06T06:04:26.869Z,53.40
2023-05-06T06:06:57.770Z,53.30
2023-05-06T06:09:24.996Z,53.10
2023-05-06T06:11:51.833Z,53.00
2023-05-06T06:14:18.708Z,52.80
2023-05-06T06:16:45.677Z,52.70
2023-05-06T06:19:14.051Z,52.50
2023-05-06T06:21:41.052Z,52.40
2023-05-06T06:24:07.933Z,52.30
2023-05-06T06:26:34.826Z,52.30
2023-05-06T06:29:01.796Z,52.40
2023-05-06T06:31:29.462Z,52.60
2023-05-06T06:33:56.435Z,52.80
2023-05-06T06:36:23.357Z,52.90
2023-05-06T06:38:50.260Z,53.00
2023-05-06T06:41:17.119Z,53.10
2023-05-06T06:43:43.923Z,53.10
2023-05-06T06:46:10.837Z,53.10
2023-05-06T06:48:37.820Z,53.10
2023-05-06T06:51:04.941Z,53.00
2023-05-06T06:53:31.774Z,53.00
2023-05-06T06:55:58.672Z,53.00
2023-05-06T06:58:25.508Z,53.00
2023-05-06T07:00:52.398Z,52.90
2023-05-06T07:03:19.515Z,52.90
2023-05-06T07:05:46.620Z,52.90
2023-05-06T07:08:13.406Z,52.90
2023-05-06T07:10:41.646Z,53.00
2023-05-06T07:13:08.502Z,53.10
2023-05-06T07:15:35.323Z,53.20
2023-05-06T07:18:02.955Z,53.30
2023-05-06T07:20:29.930Z,53.50
2023-05-06T07:22:56.726Z,53.50
2023-05-06T07:25:24.548Z,53.50
2023-05-06T07:27:51.386Z,53.50
2023-05-06T07:30:21.033Z,53.50
2023-05-06T07:32:49.952Z,53.50
2023-05-06T07:35:17.116Z,53.30
2023-05-06T07:37:46.326Z,53.20
2023-05-06T07:40:13.300Z,53.00
2023-05-06T07:42:42.942Z,52.90
2023-05-06T07:45:11.473Z,52.80
2023-05-06T07:47:38.660Z,52.90
2023-05-06T07:50:06.838Z,52.80
2023-05-06T07:52:34.120Z,52.70
2023-05-06T07:55:00.977Z,52.80
2023-05-06T07:57:27.964Z,52.80
2023-05-06T07:59:54.923Z,52.80
2023-05-06T08:02:22.040Z,52.90
2023-05-06T08:04:50.242Z,52.90
2023-05-06T08:07:18.461Z,52.80
2023-05-06T08:09:45.661Z,53.00
2023-05-06T08:12:12.757Z,53.10
2023-05-06T08:14:39.646Z,53.20
2023-05-06T08:17:06.579Z,53.30
2023-05-06T08:19:33.556Z,53.20
2023-05-06T08:22:00.394Z,53.20
2023-05-06T08:24:27.350Z,53.20
2023-05-06T08:26:54.609Z,53.20
2023-05-06T08:29:21.494Z,53.10
2023-05-06T08:31:48.385Z,53.10
2023-05-06T08:34:18.498Z,53.10
2023-05-06T08:36:45.350Z,53.20
2023-05-06T08:39:12.566Z,53.20
2023-05-06T08:41:41.020Z,53.10
2023-05-06T08:44:08.519Z,53.20
2023-05-06T08:46:35.784Z,53.10
2023-05-06T08:49:03.085Z,53.00
2023-05-06T08:51:31.842Z,52.90
2023-05-06T08:54:02.642Z,52.70
2023-05-06T08:56:32.777Z,52.50
2023-05-06T08:58:59.778Z,52.40
2023-05-06T09:01:28.125Z,52.10
2023-05-06T09:03:57.999Z,52.00
2023-05-06T09:06:25.261Z,51.80
2023-05-06T09:08:52.145Z,51.80
2023-05-06T09:11:30.153Z,51.60
2023-05-06T09:14:12.244Z,51.60
2023-05-06T09:16:41.442Z,51.50
2023-05-06T09:19:08.568Z,51.30
2023-05-06T09:21:41.287Z,51.30
2023-05-06T09:24:09.993Z,51.10
2023-05-06T09:26:39.033Z,51.00
2023-05-06T09:29:06.335Z,51.00
2023-05-06T09:31:33.547Z,50.70
2023-05-06T09:34:01.095Z,50.40
2023-05-06T09:36:28.610Z,50.30
2023-05-06T09:38:56.279Z,50.20
2023-05-06T09:41:25.493Z,50.20
2023-05-06T09:43:56.688Z,50.10
2023-05-06T09:46:42.463Z,49.90
2023-05-06T09:49:26.817Z,49.70
2023-05-06T09:51:54.011Z,49.60
2023-05-06T09:54:21.889Z,49.60
2023-05-06T09:56:49.885Z,49.60
2023-05-06T09:59:18.565Z,49.70
2023-05-06T10:01:45.730Z,49.70
2023-05-06T10:04:15.774Z,49.70
2023-05-06T10:06:44.159Z,49.70
2023-05-06T10:09:11.770Z,49.70
2023-05-06T10:11:39.322Z,49.70
2023-05-06T10:14:07.803Z,49.60
2023-05-06T10:16:36.548Z,49.60
2023-05-06T10:19:06.665Z,49.80
2023-05-06T10:21:36.395Z,50.00
2023-05-06T10:24:11.722Z,50.10
2023-05-06T10:26:39.299Z,50.30
2023-05-06T10:29:10.687Z,50.40
2023-05-06T10:31:57.119Z,50.40
2023-05-06T10:34:26.283Z,50.50
2023-05-06T10:36:57.580Z,50.50
2023-05-06T10:39:25.957Z,50.40
2023-05-06T10:41:52.952Z,50.30
2023-05-06T10:44:59.043Z,50.30
2023-05-06T10:47:26.908Z,50.20
2023-05-06T10:50:25.474Z,50.10
2023-05-06T10:52:58.901Z,50.00
2023-05-06T10:55:30.211Z,49.90
2023-05-06T10:58:16.233Z,49.80
2023-05-06T11:00:54.475Z,49.60
2023-05-06T11:03:24.057Z,49.50
2023-05-06T11:05:52.211Z,49.50
2023-05-06T11:08:24.344Z,49.40
2023-05-06T11:10:51.988Z,49.50
2023-05-06T11:13:24.875Z,49.40
2023-05-06T11:15:52.701Z,49.40
2023-05-06T11:18:29.215Z,49.30
2023-05-06T11:21:02.936Z,49.40
2023-05-06T11:23:42.636Z,49.50
2023-05-06T11:26:10.666Z,49.50
2023-05-06T11:28:45.935Z,49.50
2023-05-06T11:31:14.465Z,49.60
2023-05-06T11:33:49.248Z,49.30
2023-05-06T11:36:17.990Z,49.20
2023-05-06T11:38:46.235Z,49.10
2023-05-06T11:41:14.000Z,49.20
2023-05-06T11:43:46.466Z,49.20
2023-05-06T11:46:13.598Z,49.10
2023-05-06T11:48:40.441Z,49.20
2023-05-06T11:51:08.250Z,50.00
2023-05-06T11:53:35.244Z,49.20
2023-05-06T11:56:02.979Z,49.30
2023-05-06T11:58:30.394Z,49.30
2023-05-06T12:00:59.791Z,49.20
2023-05-06T12:03:28.753Z,49.20
2023-05-06T12:05:56.858Z,49.20
2023-05-06T12:08:28.216Z,49.20
2023-05-06T12:11:04.986Z,49.10
2023-05-06T12:13:32.408Z,49.10
2023-05-06T12:16:00.575Z,49.00
2023-05-06T12:18:28.089Z,48.90
2023-05-06T12:20:56.057Z,48.90
2023-05-06T12:23:23.350Z,48.90
2023-05-06T12:26:06.598Z,48.90
2023-05-06T12:28:35.275Z,48.80
2023-05-06T12:31:21.258Z,48.70
2023-05-06T12:33:49.812Z,48.70
2023-05-06T12:36:17.989Z,48.60
2023-05-06T12:38:52.258Z,48.70
2023-05-06T12:41:20.270Z,48.60
2023-05-06T12:43:47.672Z,48.50
2023-05-06T12:46:16.699Z,48.50
2023-05-06T12:49:16.455Z,48.60
2023-05-06T12:51:44.448Z,48.60
2023-05-06T12:54:31.551Z,48.60
2023-05-06T12:56:58.734Z,48.60
2023-05-06T12:59:28.644Z,48.70
2023-05-06T13:01:55.714Z,48.80
2023-05-06T13:04:23.158Z,48.70
2023-05-06T13:06:51.459Z,48.70
2023-05-06T13:09:18.529Z,48.80
2023-05-06T13:11:45.536Z,48.70
2023-05-06T13:14:12.559Z,48.60
2023-05-06T13:16:40.079Z,48.50
2023-05-06T13:19:09.273Z,48.60
2023-05-06T13:21:39.032Z,48.60
2023-05-06T13:24:07.337Z,48.60
2023-05-06T13:26:35.862Z,48.50
2023-05-06T13:29:03.473Z,48.30
2023-05-06T13:31:31.275Z,48.20
2023-05-06T13:33:58.450Z,48.10
2023-05-06T13:36:25.639Z,47.90
2023-05-06T13:38:53.946Z,47.80
2023-05-06T13:41:21.383Z,47.60
2023-05-06T13:43:48.214Z,47.50
2023-05-06T13:46:15.165Z,47.40
2023-05-06T13:48:42.086Z,47.30
2023-05-06T13:51:08.896Z,47.30
2023-05-06T13:53:35.767Z,47.20
2023-05-06T13:56:02.834Z,47.20
2023-05-06T13:58:29.784Z,47.30
2023-05-06T14:00:57.276Z,47.30
2023-05-06T14:03:24.119Z,47.40
2023-05-06T14:05:51.700Z,47.50
2023-05-06T14:08:18.533Z,47.80
2023-05-06T14:10:45.657Z,48.00
2023-05-06T14:13:12.560Z,48.10
2023-05-06T14:15:39.429Z,48.20
2023-05-06T14:18:06.727Z,48.20
2023-05-06T14:20:33.612Z,48.10
2023-05-06T14:23:00.532Z,48.10
2023-05-06T14:25:28.003Z,48.00
2023-05-06T14:27:55.187Z,48.00
2023-05-06T14:30:22.374Z,47.90
2023-05-06T14:32:49.609Z,47.70
2023-05-06T14:35:16.493Z,47.50
2023-05-06T14:37:43.455Z,47.40
2023-05-06T14:40:10.869Z,47.20
2023-05-06T14:42:38.112Z,47.00
2023-05-06T14:45:06.074Z,46.90
2023-05-06T14:47:33.242Z,47.50
2023-05-06T14:50:00.206Z,46.80
2023-05-06T14:52:27.222Z,46.80
2023-05-06T14:54:54.068Z,46.80
2023-05-06T14:57:21.788Z,46.80
2023-05-06T14:59:50.635Z,46.80
2023-05-06T15:02:18.108Z,46.80
2023-05-06T15:04:45.978Z,46.80
2023-05-06T15:07:13.015Z,46.80
2023-05-06T15:09:40.346Z,46.80
2023-05-06T15:12:07.753Z,46.90
2023-05-06T15:14:35.171Z,47.00
2023-05-06T15:17:02.383Z,46.90
2023-05-06T15:19:29.469Z,46.80
2023-05-06T15:21:56.293Z,46.70
2023-05-06T15:24:23.547Z,46.60
2023-05-06T15:26:50.549Z,46.60
2023-05-06T15:29:20.423Z,46.70
2023-05-06T15:31:47.564Z,46.70
2023-05-06T15:34:14.544Z,46.90
2023-05-06T15:36:41.656Z,47.00
2023-05-06T15:39:08.755Z,47.10
2023-05-06T15:41:37.719Z,47.10
2023-05-06T15:44:06.100Z,47.00
2023-05-06T15:46:33.873Z,47.00
2023-05-06T15:51:31.190Z,47.00
2023-05-06T15:53:58.460Z,46.90
2023-05-06T15:56:27.065Z,47.00
2023-05-06T15:58:55.596Z,47.00
2023-05-06T16:01:37.698Z,47.20
2023-05-06T16:04:09.607Z,47.20
2023-05-06T16:06:36.604Z,47.40
2023-05-06T16:09:03.609Z,47.60
2023-05-06T16:11:30.463Z,47.70
2023-05-06T16:13:57.789Z,48.20
2023-05-06T16:16:24.800Z,47.90
2023-05-06T16:18:51.718Z,48.00
2023-05-06T16:21:18.523Z,48.00
2023-05-06T16:23:46.042Z,48.10
2023-05-06T16:26:14.700Z,48.10
2023-05-06T16:28:41.600Z,48.20
2023-05-06T16:31:08.876Z,48.10
2023-05-06T16:33:35.867Z,48.10
2023-05-06T16:36:03.599Z,48.20
2023-05-06T16:38:30.540Z,48.10
2023-05-06T16:40:57.780Z,48.10
2023-05-06T16:43:24.625Z,48.10
2023-05-06T16:45:51.452Z,48.10
2023-05-06T16:48:18.934Z,48.20
2023-05-06T16:50:46.006Z,48.20
2023-05-06T16:53:13.418Z,48.30
2023-05-06T16:55:40.250Z,48.30
2023-05-06T16:58:07.065Z,48.30
2023-05-06T17:00:34.092Z,48.30
2023-05-06T17:03:01.665Z,48.30
2023-05-06T17:05:30.931Z,48.40
2023-05-06T17:10:29.148Z,48.50
2023-05-06T17:12:57.395Z,48.60
2023-05-06T17:15:24.801Z,48.60
2023-05-06T17:17:52.076Z,48.60
2023-05-06T17:20:22.755Z,49.30
2023-05-06T17:22:50.089Z,48.70
2023-05-06T17:25:17.098Z,48.90
2023-05-06T17:27:45.090Z,48.90
2023-05-06T17:30:14.567Z,49.00
2023-05-06T17:32:42.324Z,49.00
2023-05-06T17:35:09.970Z,48.90
2023-05-06T17:37:37.147Z,48.90
2023-05-06T17:40:05.256Z,48.90
2023-05-06T17:42:33.667Z,48.80
2023-05-06T17:45:00.603Z,48.90
2023-05-06T17:47:30.004Z,49.00
2023-05-06T17:49:57.515Z,49.30
2023-05-06T17:52:26.585Z,49.30
2023-05-06T17:55:10.738Z,49.40
2023-05-06T17:57:40.916Z,49.50
2023-05-06T18:00:09.235Z,49.50
2023-05-06T18:02:36.354Z,49.60
2023-05-06T18:05:03.506Z,49.60
2023-05-06T18:07:30.486Z,49.60
2023-05-06T18:09:57.481Z,49.80
2023-05-06T18:12:24.373Z,49.90
2023-05-06T18:14:51.262Z,49.90
2023-05-06T18:17:18.548Z,49.90
2023-05-06T18:19:45.386Z,49.90
2023-05-06T18:22:12.302Z,50.00
2023-05-06T18:24:39.165Z,50.00
2023-05-06T18:27:06.717Z,50.00
2023-05-06T18:29:34.798Z,50.00
2023-05-06T18:32:02.513Z,50.10
2023-05-06T18:34:29.875Z,50.10
2023-05-06T18:36:57.939Z,50.10
2023-05-06T18:39:25.051Z,50.10
2023-05-06T18:41:52.021Z,50.20
2023-05-06T18:44:18.823Z,50.40
2023-05-06T18:46:46.142Z,50.50
2023-05-06T18:49:14.170Z,50.60
2023-05-06T18:51:41.114Z,50.80
2023-05-06T18:54:08.272Z,50.90
2023-05-06T18:56:36.574Z,50.90
2023-05-06T18:59:03.502Z,51.00
2023-05-06T19:01:30.458Z,51.00
2023-05-06T19:03:57.528Z,51.00
2023-05-06T19:06:24.766Z,51.00
2023-05-06T19:08:56.564Z,51.00
2023-05-06T19:11:23.676Z,50.90
2023-05-06T19:13:51.979Z,51.00
2023-05-06T19:16:18.924Z,50.80
2023-05-06T19:18:47.306Z,50.80
2023-05-06T19:21:15.231Z,50.80
2023-05-06T19:23:42.083Z,50.80
2023-05-06T19:26:12.062Z,50.90
2023-05-06T19:28:40.675Z,51.00
2023-05-06T19:31:09.420Z,51.10
2023-05-06T19:33:40.231Z,51.10
2023-05-06T19:36:07.279Z,51.10
2023-05-06T19:38:34.307Z,51.10
2023-05-06T19:41:01.464Z,51.10
2023-05-06T19:43:28.763Z,51.80
2023-05-06T19:45:55.987Z,51.00
2023-05-06T19:48:23.817Z,51.00
2023-05-06T19:50:51.618Z,51.70
2023-05-06T19:53:19.032Z,51.00
2023-05-06T19:55:45.868Z,51.10
2023-05-06T19:58:14.169Z,51.10
2023-05-06T20:00:41.170Z,51.10
2023-05-06T20:03:09.026Z,51.20
2023-05-06T20:05:36.016Z,51.20
2023-05-06T20:08:02.958Z,51.20
2023-05-06T20:10:30.286Z,51.20
2023-05-06T20:12:58.054Z,51.20
2023-05-06T20:15:26.508Z,51.20
2023-05-06T20:17:54.063Z,51.10
2023-05-06T20:20:21.130Z,51.10
2023-05-06T20:22:48.026Z,51.10
2023-05-06T20:25:17.381Z,51.10
2023-05-06T20:27:45.136Z,51.10
2023-05-06T20:30:12.436Z,51.10
2023-05-06T20:32:40.377Z,51.20
2023-05-06T20:35:07.936Z,51.30
2023-05-06T20:37:36.102Z,51.40
2023-05-06T20:40:05.625Z,51.40
2023-05-06T20:42:32.829Z,51.40
2023-05-06T20:45:00.953Z,51.40
2023-05-06T20:47:27.836Z,51.30
2023-05-06T20:49:55.156Z,51.30
2023-05-06T20:52:22.276Z,51.30
2023-05-06T20:54:49.132Z,51.30
2023-05-06T20:57:16.928Z,51.30
2023-05-06T20:59:43.995Z,51.30
2023-05-06T21:02:11.035Z,51.20
2023-05-06T21:04:37.932Z,51.20
2023-05-06T21:07:04.871Z,51.20
2023-05-06T21:09:31.756Z,51.20
2023-05-06T21:11:59.331Z,51.20
2023-05-06T21:14:27.383Z,51.10
2023-05-06T21:16:54.531Z,51.10
2023-05-06T21:19:21.342Z,51.00
2023-05-06T21:21:48.457Z,51.70
2023-05-06T21:24:15.889Z,50.90
2023-05-06T21:26:42.848Z,50.90
2023-05-06T21:29:10.505Z,50.90
2023-05-06T21:31:38.037Z,50.90
2023-05-06T21:34:07.642Z,50.90
2023-05-06T21:36:36.147Z,50.80
2023-05-06T21:39:11.776Z,50.90
2023-05-06T21:41:39.479Z,50.90
2023-05-06T21:44:08.660Z,50.90
2023-05-06T21:46:37.619Z,51.00
2023-05-06T21:49:04.932Z,51.00
2023-05-06T21:51:34.687Z,51.00
2023-05-06T21:54:01.923Z,50.90
2023-05-06T21:56:29.098Z,50.80
2023-05-06T21:58:56.062Z,50.80
2023-05-06T22:01:26.134Z,50.80
2023-05-06T22:03:54.224Z,50.80
2023-05-06T22:06:22.301Z,50.80
2023-05-06T22:08:49.295Z,50.80
2023-05-06T22:11:16.491Z,50.80
2023-05-06T22:13:43.351Z,50.70
2023-05-06T22:16:10.226Z,50.70
2023-05-06T22:18:41.562Z,50.60
2023-05-06T22:21:09.517Z,50.60
2023-05-06T22:23:36.434Z,50.50
2023-05-06T22:26:03.743Z,50.50
2023-05-06T22:28:30.696Z,50.40
2023-05-06T22:30:57.902Z,50.40
2023-05-06T22:33:26.299Z,50.30
2023-05-06T22:35:53.231Z,50.30
2023-05-06T22:38:20.034Z,50.20
2023-05-06T22:40:47.738Z,50.30
2023-05-06T22:43:14.553Z,50.30
2023-05-06T22:45:41.406Z,50.40
2023-05-06T22:48:08.289Z,50.40
2023-05-06T22:50:35.223Z,50.40
2023-05-06T22:53:10.321Z,50.50
2023-05-06T22:55:40.945Z,50.50
2023-05-06T22:58:07.798Z,50.50
2023-05-06T23:00:34.650Z,50.50
2023-05-06T23:03:01.532Z,50.40
2023-05-06T23:05:28.983Z,50.40
2023-05-06T23:07:56.019Z,50.40
2023-05-06T23:10:22.951Z,50.40
2023-05-06T23:12:49.875Z,50.40
2023-05-06T23:15:16.718Z,50.40
2023-05-06T23:17:43.589Z,50.40
2023-05-06T23:20:12.712Z,50.30
2023-05-06T23:22:39.580Z,50.20
2023-05-06T23:25:09.110Z,50.20
2023-05-06T23:27:39.594Z,50.10
2023-05-06T23:30:08.057Z,50.10
2023-05-06T23:32:35.097Z,50.80
2023-05-06T23:35:02.240Z,50.10
2023-05-06T23:37:29.513Z,50.00
2023-05-06T23:39:58.555Z,50.00
2023-05-06T23:42:26.057Z,50.00
2023-05-06T23:44:53.544Z,49.80
2023-05-06T23:47:20.608Z,49.90
2023-05-06T23:49:47.404Z,49.80
2023-05-06T23:52:14.242Z,49.70
2023-05-06T23:54:41.056Z,49.60
2023-05-06T23:57:07.972Z,49.60
2023-05-06T23:59:34.882Z,49.60
